• Join FlightAware (Why Join?)
  • Login
  • US Flag 
04:54PM EST


 

Airport Tracker/Info


-or-


 

Live Flight TrackerFlight Track Log ✈ SWA1841 ✈ 17-Apr-2013 ✈ KHOU - KECP

Flight Track Log - Related Links

Times and Time Zones

All times are in EDT time to prevent confusion due to time zone crossing. See the SWA1841 flight status page for this flight to view local times or setup timezone preferences in your user account.

Time Position Orientation Groundspeed Altitude Reporting Facility
EDT Latitude Longitude Course Direction KTS MPH feet Rate Location/Type
08:25PM 29.6333 -95.2678 141° Southeast 133 153 600  Level Houston Center
08:26PM 29.5944 -95.2317 141° Southeast 181 208 3,000 2,220 Climbing Houston Center
08:27PM 29.5625 -95.2008 140° Southeast 185 213 5,000 2,100 Climbing Houston Center
08:27PM 29.5483 -95.1867 139° Southeast 216 249 5,400 1,980 Climbing Houston Center
08:28PM 29.5419 -95.1336 98° East 263 303 7,100 2,640 Climbing Houston Center
08:28PM 29.5658 -95.1053 46° Northeast 312 359 8,100 2,220 Climbing Houston Center
08:29PM 29.6042 -95.0683 40° Northeast 311 358 9,400 2,280 Climbing Houston Center
08:30PM 29.6322 -94.9478 75° East 345 397 12,200 2,700 Climbing Houston Center
08:31PM 29.6489 -94.8353 80° East 353 406 15,000 2,760 Climbing Houston Center
08:32PM 29.6547 -94.7131 87° East 379 436 18,000 2,880 Climbing Houston Center
08:33PM 29.6614 -94.5867 86° East 393 452 21,000 2,640 Climbing Houston Center
08:34PM 29.6667 -94.4539 87° East 411 473 23,500 1,980 Climbing Houston Center
08:35PM 29.6728 -94.3131 87° East 436 502 25,200 1,800 Climbing Houston Center
08:36PM 29.6814 -94.1317 87° East 471 542 27,300 1,800 Climbing Houston Center
08:37PM 29.6839 -93.9736 89° East 490 564 29,000 1,680 Climbing Houston Center
08:38PM 29.6839 -93.8106 90° East 505 581 30,800 1,800 Climbing Houston Center
08:39PM 29.6817 -93.6450 91° East 514 592 32,800 1,980 Climbing Houston Center
08:40PM 29.6800 -93.4822 91° East 513 590 34,900 1,980 Climbing Houston Center
08:41PM 29.6778 -93.3242 91° East 502 578 36,900 1,200 Climbing Houston Center
08:42PM 29.6747 -93.1550 91° East 494 568 37,500 540 Climbing Houston Center
08:43PM 29.6736 -92.9922 90° East 505 581 38,100 720 Climbing Houston Center
08:44PM 29.6703 -92.7928 91° East 519 597 39,000 420 Climbing Houston Center
08:45PM 29.6669 -92.6300 91° East 514 592 39,000  Level Houston Center
08:46PM 29.6644 -92.4697 91° East 508 585 39,000  Level Houston Center
08:47PM 29.6675 -92.3056 89° East 514 592 39,000  Level Houston Center
08:48PM 29.6819 -92.1472 84° East 504 580 39,000  Level Houston Center
08:49PM 29.6992 -91.9542 84° East 507 583 39,000  Level Houston Center
08:50PM 29.7122 -91.7953 85° East 504 580 39,000  Level Houston Center
08:51PM 29.7258 -91.6281 85° East 501 577 39,000  Level Houston Center
08:52PM 29.7400 -91.4694 84° East 499 574 39,000  Level Houston Center
08:54PM 29.7490 -91.3360 86° East  Level FlightAware Approximate
08:55PM 29.7656 -91.1503 86° East 503 579 39,000  Level Houston Center
08:56PM 29.7783 -90.9906 85° East 503 579 39,000  Level Houston Center
08:57PM 29.7900 -90.8308 85° East 503 579 39,000  Level Houston Center
08:58PM 29.8044 -90.6394 85° East 502 578 39,000  Level Houston Center
08:59PM 29.8164 -90.4811 85° East 500 575 39,000  Level Houston Center
09:00PM 29.8272 -90.3228 85° East 500 575 39,000  Level Houston Center
09:01PM 29.8392 -90.1664 85° East 496 571 39,000  Level Houston Center
09:02PM 29.8558 -90.0117 83° East 491 565 39,000  Level Houston Center
09:03PM 29.9183 -89.8469 66° East 474 545 39,000  Level Houston Center
09:04PM 29.9739 -89.7119 65° Northeast 471 542 39,000 -120 Level Houston Center
09:05PM 30.0297 -89.5761 65° Northeast 474 545 38,800 -600 Descending Houston Center
09:06PM 30.0856 -89.4425 64° Northeast 469 540 37,800 -960 Descending Houston Center
09:07PM 30.1386 -89.3092 65° Northeast 464 534 36,900 -1,080 Descending Houston Center
09:08PM 30.2053 -89.1483 64° Northeast 465 535 35,700 -1,020 Descending Houston Center
09:09PM 30.2606 -89.0136 65° Northeast 465 535 34,800 -960 Descending Houston Center
09:10PM 30.3167 -88.8706 66° East 467 537 33,800 -1,020 Descending Houston Center
09:11PM 30.3719 -88.7333 65° Northeast 470 541 32,800 -1,020 Descending Houston Center
09:12PM 30.4258 -88.5983 65° Northeast 467 537 31,800 -1,020 Descending Houston Center
09:13PM 30.4786 -88.4656 65° Northeast 459 528 30,800 -1,020 Descending Houston Center
09:14PM 30.5292 -88.3361 66° East 444 511 29,700 -1,080 Descending Houston Center
09:15PM 30.5800 -88.2064 65° Northeast 444 511 28,700 -1,080 Descending Houston Center
09:16PM 30.6394 -88.0572 65° Northeast 430 495 27,500 -1,080 Descending Houston Center
09:17PM 30.6889 -87.9328 65° Northeast 428 493 26,500 -1,020 Descending Houston Center
09:18PM 30.7167 -87.8603 66° East 432 497 25,900 -960 Descending Jacksonville Center
09:19PM 30.7608 -87.7392 67° East 427 491 25,000 -480 Descending Jacksonville Center
09:20PM 30.7742 -87.6094 83° East 399 459 25,000 -540 Level Jacksonville Center
09:21PM 30.7808 -87.4792 87° East 399 459 24,000 -1,020 Descending Jacksonville Center
09:22PM 30.7897 -87.3492 85° East 399 459 23,000 -1,020 Descending Jacksonville Center
09:23PM 30.7961 -87.2261 87° East 399 459 22,000 -1,020 Descending Jacksonville Center
09:24PM 30.8044 -87.1031 85° East 387 445 21,000 -1,020 Descending Jacksonville Center
09:25PM 30.8106 -86.9800 87° East 381 438 20,000 -1,020 Descending Jacksonville Center
09:26PM 30.8206 -86.8572 85° East 381 438 19,000 -1,020 Descending Jacksonville Center
09:27PM 30.8264 -86.7389 87° East 381 438 18,000 -1,500 Descending Jacksonville Center
09:28PM 30.8239 -86.6081 91° East 369 425 16,100 -1,860 Descending Jacksonville Center
09:29PM 30.8211 -86.4944 92° East 355 409 14,300 -1,800 Descending Jacksonville Center
09:30PM 30.8178 -86.3853 92° East 348 400 12,500 -1,800 Descending Jacksonville Center
09:31PM 30.8144 -86.2814 92° East 337 388 10,800 -1,440 Descending Jacksonville Center
09:32PM 30.8128 -86.1819 91° East 317 365 9,700 -1,140 Descending Jacksonville Center
09:34PM 30.7057 -86.0057 139° Southeast  Level FlightAware Approximate
09:41PM 30.3582 -85.7956 147° Southeast  Level Estimated
09:42PM 30.3582 -85.7956 147° Southeast  Level Estimated
09:43PM 30.3582 -85.7956 147° Southeast  Level Estimated
09:44PM 30.3582 -85.7956 147° Southeast  Level Estimated
09:45PM 30.3582 -85.7956 147° Southeast  Level Estimated
09:46PM 30.3582 -85.7956 147° Southeast  Level Estimated
09:47PM 30.3582 -85.7956 147° Southeast  Level Estimated
09:48PM 30.3582 -85.7956 147° Southeast  Level Estimated
09:49PM 30.3582 -85.7956 147° Southeast  Level Estimated
09:50PM 30.3582 -85.7956 147° Southeast  Level Estimated